Time;durP1;ratioP1;P1;durP2;ratioP2;P2;SDS_P1;SDS_P2;PMS_P1;PMS_P2;Temp;Humidity;BMP_temperature;BMP_pressure;BME280_temperature;BME280_humidity;BME280_pressure;Samples;Min_cycle;Max_cycle;Signal;HPM_P1;HPM_P2
2023/06/28 00:02:15;;;;;;;3.05;1.10;;;12.50;99.90;;;;;;5007997;28;20030;-56
2023/06/28 00:04:40;;;;;;;3.28;1.20;;;12.50;99.90;;;;;;5026485;28;20037;-56
2023/06/28 00:07:07;;;;;;;2.80;1.42;;;12.50;99.90;;;;;;5002078;28;20401;-53
2023/06/28 00:09:33;;;;;;;3.05;1.50;;;12.50;99.90;;;;;;5027069;28;20485;-55
2023/06/28 00:11:58;;;;;;;3.72;1.77;;;12.50;99.90;;;;;;5008241;28;20088;-54
2023/06/28 00:14:24;;;;;;;2.60;1.38;;;12.50;99.90;;;;;;5026956;28;20069;-52
2023/06/28 00:16:50;;;;;;;3.38;1.65;;;12.40;99.90;;;;;;5006270;28;20528;-52
2023/06/28 00:19:26;;;;;;;3.90;1.33;;;12.40;99.90;;;;;;5026775;28;20076;-52
2023/06/28 00:21:53;;;;;;;5.30;1.77;;;12.40;99.90;;;;;;5048808;28;20539;-52
2023/06/28 00:24:19;;;;;;;2.25;1.30;;;12.40;99.90;;;;;;5013363;28;20044;-56
2023/06/28 00:26:44;;;;;;;7.38;1.80;;;12.40;99.90;;;;;;5010178;28;20030;-54
2023/06/28 00:29:10;;;;;;;5.88;1.92;;;12.40;99.90;;;;;;5029332;28;20112;-55
2023/06/28 00:31:35;;;;;;;7.88;1.90;;;12.40;99.90;;;;;;5010769;28;20125;-55
2023/06/28 00:34:01;;;;;;;1.98;1.40;;;12.40;99.90;;;;;;5029781;28;20548;-54
2023/06/28 00:36:26;;;;;;;5.55;1.65;;;12.40;99.90;;;;;;5012454;28;20049;-54
2023/06/28 00:38:51;;;;;;;3.40;1.42;;;12.50;99.90;;;;;;5029707;28;20079;-51
2023/06/28 00:41:17;;;;;;;3.67;2.10;;;12.50;99.90;;;;;;5028559;28;20042;-55
2023/06/28 00:43:42;;;;;;;7.10;2.20;;;12.50;99.90;;;;;;5030298;28;20104;-57
2023/06/28 00:46:08;;;;;;;2.28;1.75;;;12.60;99.90;;;;;;5014816;28;20393;-53
2023/06/28 00:48:34;;;;;;;2.38;1.67;;;12.50;99.90;;;;;;5029529;28;20425;-53
2023/06/28 00:51:02;;;;;;;4.05;2.05;;;12.60;99.90;;;;;;5015666;28;20120;-51
2023/06/28 00:53:27;;;;;;;6.20;1.80;;;12.60;99.90;;;;;;5024435;28;20138;-54
2023/06/28 00:55:55;;;;;;;4.45;2.05;;;12.60;99.90;;;;;;5013696;28;20127;-54
2023/06/28 00:58:21;;;;;;;2.22;1.75;;;12.60;99.90;;;;;;5026041;28;20026;-55
2023/06/28 01:00:47;;;;;;;3.22;1.70;;;12.70;99.90;;;;;;5010715;28;20030;-56
2023/06/28 01:03:18;;;;;;;4.30;1.95;;;12.60;99.90;;;;;;5026199;28;20146;-54
2023/06/28 01:05:53;;;;;;;3.35;1.88;;;12.60;99.90;;;;;;5019086;28;20029;-54
2023/06/28 01:08:19;;;;;;;5.80;1.67;;;12.60;99.90;;;;;;5010741;28;20034;-53
2023/06/28 01:10:47;;;;;;;3.38;1.52;;;12.60;99.90;;;;;;5030191;28;20064;-56
2023/06/28 01:13:13;;;;;;;4.50;1.90;;;12.60;99.90;;;;;;5027995;28;20219;-53
2023/06/28 01:15:38;;;;;;;4.63;2.00;;;12.60;99.90;;;;;;5029866;28;20030;-55
2023/06/28 01:18:05;;;;;;;5.38;1.75;;;12.60;99.90;;;;;;5012804;28;20026;-57
2023/06/28 01:20:31;;;;;;;5.13;2.25;;;12.60;99.90;;;;;;5029174;28;20035;-57
2023/06/28 01:22:57;;;;;;;5.97;1.90;;;12.70;99.90;;;;;;5013747;28;20029;-58
2023/06/28 01:25:23;;;;;;;9.88;1.77;;;12.70;99.90;;;;;;5028966;28;20111;-57
2023/06/28 01:27:49;;;;;;;4.03;1.83;;;12.70;99.90;;;;;;5014619;28;20405;-55
2023/06/28 01:30:15;;;;;;;5.75;2.03;;;12.60;99.90;;;;;;5028951;28;20188;-57
2023/06/28 01:32:44;;;;;;;3.78;2.20;;;12.70;99.90;;;;;;5014572;28;20461;-57
2023/06/28 01:35:16;;;;;;;3.83;2.00;;;12.70;99.90;;;;;;5029110;28;20032;-56
2023/06/28 01:37:43;;;;;;;7.55;2.08;;;12.70;99.90;;;;;;5019899;28;20049;-58
2023/06/28 01:40:10;;;;;;;4.03;2.13;;;12.80;99.90;;;;;;5029237;28;20332;-57
2023/06/28 01:42:37;;;;;;;3.70;2.00;;;12.70;99.90;;;;;;5016086;28;20026;-57
2023/06/28 01:45:03;;;;;;;2.22;1.83;;;12.80;99.90;;;;;;5028718;28;20033;-60
2023/06/28 01:47:28;;;;;;;4.90;2.00;;;12.80;99.90;;;;;;5027223;28;20048;-57
2023/06/28 01:49:55;;;;;;;5.43;1.80;;;12.80;99.90;;;;;;5029004;28;20484;-56
2023/06/28 01:52:20;;;;;;;4.03;2.17;;;12.80;99.90;;;;;;5026983;28;20034;-56
2023/06/28 01:54:46;;;;;;;6.97;2.05;;;12.80;99.90;;;;;;5013206;28;20045;-58
2023/06/28 01:57:12;;;;;;;6.40;2.00;;;12.90;99.90;;;;;;5028252;28;20100;-57
2023/06/28 01:59:37;;;;;;;4.10;1.88;;;12.90;99.90;;;;;;5008764;28;20042;-57
2023/06/28 02:02:03;;;;;;;6.13;2.10;;;12.90;99.90;;;;;;5027276;28;20036;-57
2023/06/28 02:04:28;;;;;;;3.40;1.92;;;13.00;99.90;;;;;;5010681;28;20124;-57
2023/06/28 02:06:54;;;;;;;5.75;2.60;;;13.00;99.90;;;;;;5023687;28;20451;-58
2023/06/28 02:09:19;;;;;;;4.65;2.22;;;13.00;99.90;;;;;;5011141;28;20030;-58
2023/06/28 02:11:45;;;;;;;6.10;2.60;;;13.00;99.90;;;;;;5028248;28;20627;-56
2023/06/28 02:14:10;;;;;;;5.35;2.50;;;13.00;99.90;;;;;;5012763;28;20095;-57
2023/06/28 02:16:37;;;;;;;5.00;2.25;;;13.10;99.90;;;;;;5028003;28;20021;-58
2023/06/28 02:19:02;;;;;;;8.52;3.00;;;13.00;99.90;;;;;;5013409;28;20034;-58
2023/06/28 02:21:28;;;;;;;6.63;2.83;;;13.10;99.90;;;;;;5028116;28;20111;-57
2023/06/28 02:23:53;;;;;;;6.65;2.60;;;13.10;99.90;;;;;;5014584;28;20430;-56
2023/06/28 02:26:19;;;;;;;5.05;2.30;;;13.10;99.90;;;;;;5028044;28;20033;-57
2023/06/28 02:28:44;;;;;;;5.63;2.85;;;13.20;99.90;;;;;;5015811;28;20108;-56
2023/06/28 02:31:10;;;;;;;4.18;2.17;;;13.10;99.90;;;;;;5010240;28;20049;-56
2023/06/28 02:33:35;;;;;;;4.07;2.10;;;13.20;99.90;;;;;;5026432;28;20110;-57
2023/06/28 02:36:01;;;;;;;4.28;1.95;;;13.20;99.90;;;;;;5028441;28;20037;-57
2023/06/28 02:38:26;;;;;;;6.60;1.95;;;13.10;99.90;;;;;;5026447;28;20033;-57
2023/06/28 02:40:52;;;;;;;4.28;2.03;;;13.20;99.90;;;;;;5028249;28;20037;-56
2023/06/28 02:43:17;;;;;;;5.00;2.00;;;13.20;99.90;;;;;;5026028;28;20024;-56
2023/06/28 02:45:43;;;;;;;7.05;2.55;;;13.20;99.90;;;;;;5028289;28;20044;-56
2023/06/28 02:48:08;;;;;;;4.53;2.35;;;13.30;99.90;;;;;;5020124;28;20120;-54
2023/06/28 02:50:34;;;;;;;6.07;2.58;;;13.30;99.90;;;;;;5008610;28;20033;-57
2023/06/28 02:52:59;;;;;;;5.40;2.83;;;13.30;99.90;;;;;;5020666;28;20033;-58
2023/06/28 02:55:25;;;;;;;8.73;2.63;;;13.30;99.90;;;;;;5008414;28;20026;-55
2023/06/28 02:57:51;;;;;;;3.58;2.03;;;13.30;99.90;;;;;;5021917;28;20617;-57
2023/06/28 03:00:16;;;;;;;3.83;2.30;;;13.40;99.90;;;;;;5008462;28;20449;-57
2023/06/28 03:02:41;;;;;;;4.18;2.85;;;13.40;99.90;;;;;;5022982;28;20436;-56
2023/06/28 03:05:07;;;;;;;5.38;2.15;;;13.40;99.90;;;;;;5009070;28;20041;-57
2023/06/28 03:07:33;;;;;;;5.13;2.30;;;13.40;99.90;;;;;;5024494;28;20048;-55
2023/06/28 03:09:58;;;;;;;5.80;2.67;;;13.40;99.90;;;;;;5008299;28;20042;-56
2023/06/28 03:12:24;;;;;;;5.80;1.92;;;13.40;99.90;;;;;;5025063;28;20722;-57
2023/06/28 03:14:49;;;;;;;5.35;2.25;;;13.40;99.90;;;;;;5008245;28;20173;-57
2023/06/28 03:17:16;;;;;;;6.80;2.40;;;13.40;99.90;;;;;;5027178;28;20029;-57
2023/06/28 03:19:42;;;;;;;4.38;2.00;;;13.40;99.90;;;;;;5007052;28;20122;-57
2023/06/28 03:22:07;;;;;;;5.63;2.33;;;13.50;99.90;;;;;;5027102;28;20112;-57
2023/06/28 03:24:33;;;;;;;6.45;2.42;;;13.50;99.90;;;;;;5008121;28;20034;-57
2023/06/28 03:26:58;;;;;;;5.10;2.42;;;13.50;99.90;;;;;;5027116;28;20038;-57
2023/06/28 03:29:24;;;;;;;3.83;2.38;;;13.50;99.90;;;;;;5009430;28;20045;-57
2023/06/28 03:31:49;;;;;;;4.15;2.22;;;13.60;99.90;;;;;;5033856;28;20057;-57
2023/06/28 03:34:16;;;;;;;4.93;2.28;;;13.60;99.90;;;;;;5022115;28;20694;-56
2023/06/28 03:36:43;;;;;;;5.47;2.00;;;13.60;99.90;;;;;;5008084;28;20018;-55
2023/06/28 03:39:09;;;;;;;6.65;2.17;;;13.60;99.90;;;;;;5025308;28;20040;-56
2023/06/28 03:41:34;;;;;;;8.30;2.20;;;13.60;99.90;;;;;;5027615;28;20033;-58
2023/06/28 03:44:00;;;;;;;4.88;2.10;;;13.70;99.90;;;;;;5025593;28;20102;-56
2023/06/28 03:46:25;;;;;;;7.70;2.47;;;13.70;99.90;;;;;;5027656;28;20040;-56
2023/06/28 03:48:51;;;;;;;8.75;2.10;;;13.70;99.90;;;;;;5025688;28;20025;-54
2023/06/28 03:51:16;;;;;;;3.75;1.92;;;13.70;99.90;;;;;;5027320;28;20045;-55
2023/06/28 03:53:43;;;;;;;5.10;2.65;;;13.70;99.90;;;;;;5025373;28;20114;-54
2023/06/28 03:56:08;;;;;;;7.72;2.67;;;13.80;99.90;;;;;;5030343;28;20045;-57
2023/06/28 03:58:34;;;;;;;5.57;2.40;;;13.90;99.90;;;;;;5026969;28;20033;-55
2023/06/28 04:01:02;;;;;;;6.13;2.28;;;13.90;99.90;;;;;;5029844;28;20856;-53
2023/06/28 04:03:27;;;;;;;5.60;2.30;;;14.00;99.90;;;;;;5029008;28;20482;-54
2023/06/28 04:05:53;;;;;;;7.00;2.13;;;14.10;99.90;;;;;;5025219;28;20036;-56
2023/06/28 04:08:19;;;;;;;3.70;2.10;;;14.10;99.90;;;;;;5029145;28;20477;-52
2023/06/28 04:10:44;;;;;;;3.63;2.00;;;14.10;99.90;;;;;;5031121;28;20504;-55
2023/06/28 04:13:10;;;;;;;4.95;2.35;;;14.10;99.90;;;;;;5024761;28;20022;-54
2023/06/28 04:15:36;;;;;;;6.47;2.08;;;14.10;99.90;;;;;;5011502;28;20105;-55
2023/06/28 04:18:01;;;;;;;4.70;1.52;;;14.10;99.90;;;;;;5025291;28;20068;-58
2023/06/28 04:20:27;;;;;;;6.80;2.28;;;14.10;99.90;;;;;;5018877;28;20033;-57
2023/06/28 04:22:53;;;;;;;4.00;2.00;;;14.20;99.90;;;;;;5029010;28;20688;-58
2023/06/28 04:25:18;;;;;;;7.55;2.10;;;14.20;99.90;;;;;;5030925;28;20087;-57
2023/06/28 04:27:44;;;;;;;5.82;2.58;;;14.20;99.90;;;;;;5030624;28;20452;-58
2023/06/28 04:30:10;;;;;;;6.03;2.40;;;14.30;99.90;;;;;;5028952;28;20517;-57
2023/06/28 04:32:36;;;;;;;7.65;2.33;;;14.50;99.90;;;;;;5030352;28;20155;-57
2023/06/28 04:35:01;;;;;;;5.90;2.30;;;14.50;99.90;;;;;;5028496;28;20038;-55
2023/06/28 04:37:27;;;;;;;3.25;2.20;;;14.60;99.90;;;;;;5030559;28;20626;-57
2023/06/28 04:39:59;;;;;;;5.40;1.85;;;14.60;99.90;;;;;;5028642;28;20039;-58
2023/06/28 04:42:25;;;;;;;4.63;1.88;;;14.70;99.90;;;;;;5030515;28;20095;-58
2023/06/28 04:44:50;;;;;;;3.53;1.75;;;14.80;99.90;;;;;;5028610;28;20029;-57
2023/06/28 04:47:17;;;;;;;6.35;2.90;;;14.90;99.90;;;;;;5030349;28;20117;-56
2023/06/28 04:49:47;;;;;;;3.45;1.80;;;14.90;99.90;;;;;;5028230;28;20029;-57
2023/06/28 04:52:18;;;;;;;5.78;2.35;;;15.10;99.90;;;;;;5030048;28;20029;-58
2023/06/28 04:54:44;;;;;;;7.13;2.25;;;15.10;99.90;;;;;;5015348;28;20416;-56
2023/06/28 04:57:10;;;;;;;6.32;1.85;;;15.30;99.90;;;;;;5030127;28;20046;-56
2023/06/28 04:59:36;;;;;;;4.93;2.08;;;15.40;99.90;;;;;;5010574;28;20045;-57
2023/06/28 05:02:05;;;;;;;4.38;1.83;;;15.50;99.90;;;;;;5030395;28;20219;-57
2023/06/28 05:04:34;;;;;;;4.40;2.17;;;15.70;99.90;;;;;;5036379;28;20036;-57
2023/06/28 05:07:05;;;;;;;4.88;1.63;;;15.80;99.90;;;;;;5025377;28;20386;-56
2023/06/28 05:09:31;;;;;;;3.92;1.80;;;16.00;99.90;;;;;;5012428;28;20072;-56
2023/06/28 05:11:58;;;;;;;4.90;2.58;;;16.10;99.90;;;;;;5049780;28;20063;-56
2023/06/28 05:14:25;;;;;;;3.80;1.88;;;16.10;99.90;;;;;;5010434;28;20038;-51
2023/06/28 05:16:50;;;;;;;5.63;2.38;;;16.10;99.90;;;;;;5029696;28;20040;-50
2023/06/28 05:19:16;;;;;;;3.88;1.60;;;16.20;99.90;;;;;;5027267;28;20486;-51
2023/06/28 05:21:41;;;;;;;3.33;1.85;;;16.20;99.90;;;;;;5029527;28;20018;-53
2023/06/28 05:24:07;;;;;;;4.30;1.65;;;16.30;99.60;;;;;;5029376;28;20578;-54
2023/06/28 05:26:32;;;;;;;4.88;2.13;;;16.50;99.90;;;;;;5027518;28;20060;-51
2023/06/28 05:28:58;;;;;;;3.97;1.60;;;16.70;99.90;;;;;;5029404;28;20030;-55
2023/06/28 05:31:23;;;;;;;8.57;2.03;;;16.80;98.20;;;;;;5009526;28;20037;-54
2023/06/28 05:33:48;;;;;;;5.35;2.15;;;16.90;98.10;;;;;;5028553;28;20049;-49
2023/06/28 05:36:15;;;;;;;6.57;2.00;;;17.10;97.30;;;;;;5010823;28;20394;-54
2023/06/28 05:38:40;;;;;;;6.68;2.30;;;17.30;95.60;;;;;;5028549;28;20083;-52
2023/06/28 05:41:13;;;;;;;3.15;1.45;;;17.50;95.00;;;;;;5011949;28;20125;-53
2023/06/28 05:43:38;;;;;;;4.45;1.95;;;17.90;94.70;;;;;;5028521;28;20064;-55
2023/06/28 05:46:04;;;;;;;3.50;1.60;;;18.10;92.80;;;;;;5012009;28;20109;-51
2023/06/28 05:48:31;;;;;;;7.68;1.75;;;18.10;92.00;;;;;;5028146;28;20034;-54
2023/06/28 05:50:56;;;;;;;5.60;1.73;;;18.40;92.20;;;;;;5012992;28;20105;-53
2023/06/28 05:53:22;;;;;;;3.72;1.45;;;18.60;90.70;;;;;;5028074;28;20120;-53
2023/06/28 05:55:47;;;;;;;4.10;1.80;;;19.40;85.30;;;;;;5016340;28;20054;-52
2023/06/28 05:58:12;;;;;;;4.68;1.60;;;19.90;84.10;;;;;;5028868;28;20501;-52
2023/06/28 06:00:38;;;;;;;2.90;1.38;;;20.10;80.90;;;;;;5015345;28;20038;-55
2023/06/28 06:03:03;;;;;;;3.80;1.60;;;20.30;80.40;;;;;;5026239;28;20405;-55
2023/06/28 06:05:29;;;;;;;6.57;1.77;;;20.60;78.10;;;;;;5008338;28;20113;-55
2023/06/28 06:07:54;;;;;;;5.03;1.50;;;20.60;78.60;;;;;;5036139;28;20056;-54
2023/06/28 06:10:20;;;;;;;2.40;1.20;;;20.50;77.40;;;;;;5029461;28;20084;-53
2023/06/28 06:12:47;;;;;;;2.70;1.65;;;20.40;74.90;;;;;;5026922;28;20017;-56
2023/06/28 06:15:12;;;;;;;6.93;1.67;;;20.10;75.60;;;;;;5028623;28;20040;-54
2023/06/28 06:17:38;;;;;;;4.82;1.67;;;20.20;76.10;;;;;;5026362;28;20025;-53
2023/06/28 06:20:04;;;;;;;5.22;1.63;;;20.30;74.10;;;;;;5028841;28;20667;-52
2023/06/28 06:22:30;;;;;;;4.55;1.48;;;20.40;73.90;;;;;;5020993;28;20033;-50
2023/06/28 06:24:55;;;;;;;3.42;1.50;;;20.90;73.30;;;;;;5009123;28;20108;-53
2023/06/28 06:27:21;;;;;;;2.10;1.50;;;21.50;69.00;;;;;;5026108;28;20036;-57
2023/06/28 06:29:46;;;;;;;4.55;1.35;;;21.80;68.80;;;;;;5028759;28;20033;-56
2023/06/28 06:32:12;;;;;;;5.15;1.92;;;22.00;67.40;;;;;;5023346;28;20374;-56
2023/06/28 06:34:39;;;;;;;4.75;1.38;;;22.10;67.30;;;;;;5008903;28;20536;-55
2023/06/28 06:37:04;;;;;;;2.30;1.20;;;22.70;63.80;;;;;;5023917;28;20043;-54
2023/06/28 06:39:30;;;;;;;6.00;1.95;;;24.10;62.40;;;;;;5008870;28;20554;-56
2023/06/28 06:41:55;;;;;;;3.55;1.60;;;25.50;58.30;;;;;;5024858;28;20030;-55
2023/06/28 06:44:21;;;;;;;2.10;1.30;;;25.80;55.30;;;;;;5008614;28;20033;-56
2023/06/28 06:46:46;;;;;;;2.72;1.13;;;27.00;49.80;;;;;;5027652;28;20091;-55
2023/06/28 06:49:12;;;;;;;3.08;1.17;;;27.80;46.20;;;;;;5026460;28;20662;-53
2023/06/28 06:51:37;;;;;;;3.97;1.30;;;28.50;44.80;;;;;;5028274;28;20036;-54
2023/06/28 06:54:03;;;;;;;3.78;1.33;;;28.60;42.60;;;;;;5008080;28;20490;-55
2023/06/28 06:56:31;;;;;;;4.18;1.40;;;29.70;39.90;;;;;;5027355;28;20033;-56
2023/06/28 06:58:56;;;;;;;1.73;1.00;;;30.40;36.20;;;;;;5026349;28;20026;-56
2023/06/28 07:01:21;;;;;;;3.63;1.55;;;31.60;32.60;;;;;;5027924;28;20033;-54
2023/06/28 07:03:47;;;;;;;3.35;1.40;;;32.60;28.70;;;;;;5009961;28;20033;-55
2023/06/28 07:06:13;;;;;;;2.45;1.20;;;33.60;25.30;;;;;;5024129;28;20026;-53
2023/06/28 07:08:38;;;;;;;3.67;1.20;;;34.00;22.40;;;;;;5025988;28;20030;-53
2023/06/28 07:11:04;;;;;;;1.77;0.90;;;34.20;19.90;;;;;;5027780;28;20056;-56
2023/06/28 07:13:29;;;;;;;2.08;1.10;;;34.80;18.60;;;;;;5012868;28;20057;-56
2023/06/28 07:15:55;;;;;;;1.25;1.10;;;34.80;17.10;;;;;;5027253;28;20481;-55
2023/06/28 07:18:20;;;;;;;4.03;1.33;;;34.40;12.60;;;;;;5013323;28;20097;-56
2023/06/28 07:20:46;;;;;;;2.55;1.23;;;33.60;16.60;;;;;;5027085;28;20068;-55
2023/06/28 07:23:11;;;;;;;2.17;1.27;;;32.70;16.20;;;;;;5014448;28;20112;-53
2023/06/28 07:25:38;;;;;;;4.10;1.30;;;31.40;16.10;;;;;;5027021;28;20041;-56
2023/06/28 07:28:03;;;;;;;2.90;1.27;;;31.60;16.60;;;;;;5036049;28;20182;-55
2023/06/28 07:30:30;;;;;;;2.22;0.98;;;31.90;15.10;;;;;;5030461;28;20112;-54
2023/06/28 07:32:57;;;;;;;2.85;1.27;;;31.90;14.80;;;;;;5029886;28;20036;-55
2023/06/28 07:35:22;;;;;;;4.38;1.40;;;30.60;14.40;;;;;;5031653;28;20071;-57
2023/06/28 07:37:48;;;;;;;2.65;1.42;;;29.90;15.10;;;;;;5029751;28;20132;-56
2023/06/28 07:40:13;;;;;;;3.03;1.10;;;28.60;15.10;;;;;;5031706;28;20120;-56
2023/06/28 07:42:41;;;;;;;3.28;1.27;;;27.20;15.10;;;;;;5029808;28;20167;-52
2023/06/28 07:45:07;;;;;;;1.13;0.98;;;26.90;16.80;;;;;;5031979;28;20030;-56
2023/06/28 07:47:33;;;;;;;6.78;1.25;;;27.40;15.00;;;;;;5023601;28;20152;-55
2023/06/28 07:49:58;;;;;;;4.97;1.08;;;27.80;16.10;;;;;;5011906;28;20101;-56
2023/06/28 07:52:24;;;;;;;1.48;1.05;;;27.90;16.00;;;;;;5033729;28;20108;-55
2023/06/28 07:54:49;;;;;;;2.70;1.10;;;28.40;16.20;;;;;;5051437;28;20675;-56
2023/06/28 07:57:15;;;;;;;2.30;0.90;;;29.20;15.70;;;;;;5026282;28;20061;-53
2023/06/28 07:59:40;;;;;;;2.60;1.02;;;28.90;15.80;;;;;;5011613;28;20390;-57
2023/06/28 08:02:05;;;;;;;2.28;1.00;;;29.00;16.00;;;;;;5008531;28;20037;-56
2023/06/28 08:04:31;;;;;;;1.75;1.15;;;30.30;15.20;;;;;;5012440;28;20347;-55
2023/06/28 08:06:56;;;;;;;5.10;1.27;;;30.70;13.40;;;;;;5006503;28;20022;-57
2023/06/28 08:09:22;;;;;;;3.30;0.93;;;30.60;13.20;;;;;;5031343;28;20034;-54
2023/06/28 08:11:48;;;;;;;3.10;1.00;;;31.20;12.40;;;;;;5031190;28;20057;-57
2023/06/28 08:14:13;;;;;;;2.10;1.08;;;31.40;11.90;;;;;;5030703;28;20392;-56
2023/06/28 08:16:38;;;;;;;1.23;0.98;;;31.20;11.30;;;;;;5030916;28;20492;-56
2023/06/28 08:19:04;;;;;;;9.73;2.50;;;31.20;11.30;;;;;;5010544;28;20030;-56
2023/06/28 08:21:30;;;;;;;3.13;1.30;;;31.70;11.00;;;;;;5030109;28;20026;-57
2023/06/28 08:23:55;;;;;;;2.45;1.20;;;31.70;11.10;;;;;;5011845;28;20034;-56
2023/06/28 08:26:21;;;;;;;2.78;1.35;;;31.20;11.10;;;;;;5030193;28;20029;-54
2023/06/28 08:28:46;;;;;;;3.95;1.35;;;30.40;10.60;;;;;;5029010;28;20108;-58
2023/06/28 08:31:13;;;;;;;3.45;1.10;;;29.60;12.20;;;;;;5030658;28;20034;-56
2023/06/28 08:33:39;;;;;;;3.33;1.10;;;28.70;12.20;;;;;;5013619;28;20105;-55
2023/06/28 08:36:04;;;;;;;3.05;1.20;;;28.50;12.70;;;;;;5029978;28;20124;-54
2023/06/28 08:38:30;;;;;;;2.85;1.10;;;28.60;12.20;;;;;;5014750;28;20033;-56
2023/06/28 08:40:55;;;;;;;2.80;1.08;;;29.00;12.50;;;;;;5011539;28;20141;-56
2023/06/28 08:43:23;;;;;;;2.85;1.20;;;29.60;12.40;;;;;;5015991;28;20040;-55
2023/06/28 08:45:49;;;;;;;3.70;1.15;;;29.70;12.00;;;;;;5030160;28;20032;-56
2023/06/28 08:48:16;;;;;;;3.15;1.55;;;29.20;11.50;;;;;;5016746;28;20029;-55
2023/06/28 08:50:43;;;;;;;1.38;0.88;;;28.40;11.50;;;;;;5012270;28;20025;-56
2023/06/28 08:53:13;;;;;;;3.25;1.42;;;28.10;11.70;;;;;;5028205;28;20040;-55
2023/06/28 08:55:41;;;;;;;4.88;1.35;;;27.50;12.20;;;;;;5029796;28;20041;-54
2023/06/28 08:58:07;;;;;;;4.22;1.38;;;27.20;13.80;;;;;;5028491;28;20095;-55
2023/06/28 09:00:32;;;;;;;3.60;1.30;;;27.20;14.00;;;;;;5030095;28;20025;-54
2023/06/28 09:02:58;;;;;;;3.53;1.33;;;27.00;14.00;;;;;;5028258;28;20026;-54
2023/06/28 09:05:23;;;;;;;3.42;1.45;;;27.00;13.90;;;;;;5026984;28;20040;-57
2023/06/28 09:07:51;;;;;;;5.20;1.52;;;27.30;14.20;;;;;;5019816;28;20429;-57
2023/06/28 09:10:18;;;;;;;2.45;1.00;;;27.10;14.40;;;;;;5029913;28;20029;-57
2023/06/28 09:12:45;;;;;;;1.63;1.23;;;26.90;15.10;;;;;;5035493;28;20106;-57
2023/06/28 09:15:11;;;;;;;1.92;1.05;;;27.00;14.90;;;;;;5050267;28;20037;-53
2023/06/28 09:17:36;;;;;;;3.20;1.30;;;26.80;15.10;;;;;;5022113;28;20040;-55
2023/06/28 09:20:14;;;;;;;4.53;1.30;;;26.40;15.20;;;;;;5010334;28;20025;-56
2023/06/28 09:22:40;;;;;;;1.65;1.10;;;26.20;16.40;;;;;;5015341;28;20079;-57
2023/06/28 09:25:05;;;;;;;2.58;1.13;;;26.20;15.70;;;;;;5030188;28;20428;-55
2023/06/28 09:27:31;;;;;;;4.13;1.23;;;26.10;15.60;;;;;;5021890;28;20041;-55
2023/06/28 09:29:59;;;;;;;2.85;1.02;;;25.70;15.80;;;;;;5009897;28;20551;-54
2023/06/28 09:32:37;;;;;;;4.20;1.27;;;25.50;15.80;;;;;;5022491;28;20026;-55
2023/06/28 09:35:08;;;;;;;2.47;1.20;;;25.40;16.00;;;;;;4992204;28;20022;-53
2023/06/28 09:37:34;;;;;;;2.53;0.80;;;25.30;16.30;;;;;;5014392;28;20614;-55
2023/06/28 09:39:59;;;;;;;1.83;1.20;;;25.30;16.20;;;;;;5029918;28;20029;-54
2023/06/28 09:42:25;;;;;;;4.25;1.40;;;25.20;16.60;;;;;;5022469;28;20029;-56
2023/06/28 09:44:56;;;;;;;2.95;1.20;;;25.10;16.50;;;;;;5009769;28;20079;-55
2023/06/28 09:47:31;;;;;;;1.77;0.95;;;25.10;16.70;;;;;;5022147;28;20105;-56
2023/06/28 09:50:00;;;;;;;3.80;1.08;;;25.10;16.80;;;;;;5009821;28;20024;-57
2023/06/28 09:52:26;;;;;;;5.57;1.42;;;25.20;16.90;;;;;;5021361;28;20057;-58
2023/06/28 09:54:52;;;;;;;1.60;1.10;;;25.30;17.10;;;;;;5009559;28;20026;-57
2023/06/28 09:57:18;;;;;;;1.80;1.00;;;25.70;16.90;;;;;;5022433;28;20053;-57
2023/06/28 09:59:45;;;;;;;3.80;1.20;;;25.80;16.60;;;;;;5009545;28;20022;-56
2023/06/28 10:02:12;;;;;;;2.28;1.08;;;26.00;16.60;;;;;;5023733;28;20041;-57
2023/06/28 10:04:38;;;;;;;3.17;1.10;;;26.10;17.10;;;;;;5008695;28;20048;-47
2023/06/28 10:07:05;;;;;;;3.55;1.33;;;25.70;16.70;;;;;;5024808;28;20030;-55
2023/06/28 10:09:36;;;;;;;2.65;1.30;;;25.60;17.10;;;;;;5029052;28;20029;-57
2023/06/28 10:12:05;;;;;;;2.70;1.00;;;25.70;17.60;;;;;;5025242;28;20106;-56
2023/06/28 10:14:38;;;;;;;4.13;1.20;;;25.70;17.90;;;;;;4991586;28;20038;-56
2023/06/28 10:17:04;;;;;;;2.92;1.20;;;25.70;17.60;;;;;;5009599;28;20026;-57
2023/06/28 10:19:30;;;;;;;2.13;0.90;;;25.70;17.60;;;;;;5028883;28;20017;-56
2023/06/28 10:21:56;;;;;;;2.53;1.20;;;25.90;17.50;;;;;;5025679;28;20034;-56
2023/06/28 10:24:23;;;;;;;1.15;0.95;;;25.90;17.30;;;;;;5009160;28;20619;-58
2023/06/28 10:26:49;;;;;;;2.80;1.35;;;26.00;17.20;;;;;;5026215;28;20080;-55
2023/06/28 10:29:16;;;;;;;1.52;0.88;;;26.00;17.30;;;;;;5009035;28;20053;-56
2023/06/28 10:31:42;;;;;;;2.65;1.13;;;26.10;17.20;;;;;;5010415;28;20037;-58
2023/06/28 10:34:08;;;;;;;2.42;1.30;;;26.10;16.90;;;;;;5007725;28;20095;-58
2023/06/28 10:36:34;;;;;;;3.55;1.33;;;26.20;17.10;;;;;;5027941;28;20032;-56
2023/06/28 10:38:59;;;;;;;3.78;1.00;;;26.00;17.00;;;;;;4991260;28;20030;-57
2023/06/28 10:41:25;;;;;;;4.20;1.35;;;25.80;17.30;;;;;;5027713;28;20485;-58
2023/06/28 10:44:03;;;;;;;1.55;0.90;;;25.70;17.10;;;;;;5009847;28;20034;-58
2023/06/28 10:46:28;;;;;;;2.17;1.13;;;25.50;17.90;;;;;;5008737;28;20053;-56
2023/06/28 10:48:56;;;;;;;4.65;1.33;;;25.30;17.60;;;;;;5025969;28;20111;-57
2023/06/28 10:51:25;;;;;;;2.70;0.85;;;25.00;17.70;;;;;;5028324;28;20028;-56
2023/06/28 10:53:53;;;;;;;1.77;1.00;;;24.80;17.90;;;;;;5009839;28;20040;-56
2023/06/28 10:56:20;;;;;;;3.03;1.10;;;24.70;18.20;;;;;;5027518;28;20073;-53
2023/06/28 10:58:52;;;;;;;3.13;1.02;;;24.50;18.40;;;;;;5026489;28;20420;-54
2023/06/28 11:01:37;;;;;;;1.40;1.05;;;24.40;18.70;;;;;;5008595;28;20349;-56
2023/06/28 11:04:19;;;;;;;1.77;0.82;;;24.50;19.20;;;;;;5026136;28;20508;-56
2023/06/28 11:06:45;;;;;;;2.72;1.00;;;24.70;19.10;;;;;;5004056;28;20029;-54
2023/06/28 11:09:17;;;;;;;2.72;1.17;;;24.90;18.50;;;;;;5034237;28;20024;-56
2023/06/28 11:11:51;;;;;;;1.50;0.90;;;24.90;18.80;;;;;;5028376;28;20456;-56
2023/06/28 11:14:23;;;;;;;1.88;1.00;;;25.00;19.40;;;;;;5014871;28;20044;-56
2023/06/28 11:16:49;;;;;;;5.53;1.10;;;25.30;19.10;;;;;;5027870;28;20031;-58
2023/06/28 11:19:18;;;;;;;2.05;0.90;;;25.40;19.10;;;;;;5014978;28;20042;-56
2023/06/28 11:21:48;;;;;;;2.15;1.40;;;25.60;18.90;;;;;;5027626;28;20041;-56
2023/06/28 11:24:23;;;;;;;2.80;1.30;;;25.80;18.80;;;;;;5025920;28;20036;-56
2023/06/28 11:26:48;;;;;;;1.15;0.90;;;26.00;18.70;;;;;;5008411;28;20038;-57
2023/06/28 11:29:19;;;;;;;2.72;1.08;;;26.10;19.00;;;;;;5025437;28;20088;-59
2023/06/28 11:31:52;;;;;;;3.90;1.27;;;26.00;18.10;;;;;;5008261;28;20030;-56
2023/06/28 11:34:18;;;;;;;3.22;1.33;;;25.50;17.80;;;;;;5025569;28;20038;-57
2023/06/28 11:36:45;;;;;;;4.82;1.45;;;25.20;18.10;;;;;;5027881;28;20021;-58
2023/06/28 11:39:18;;;;;;;2.00;1.20;;;25.20;18.60;;;;;;5025944;28;20025;-56
2023/06/28 11:41:44;;;;;;;5.20;1.20;;;25.00;18.80;;;;;;5008299;28;20076;-56
2023/06/28 11:44:12;;;;;;;2.72;1.08;;;25.00;19.20;;;;;;5014832;28;20034;-57
2023/06/28 11:46:39;;;;;;;5.03;1.30;;;24.90;18.90;;;;;;5027483;28;20093;-57
2023/06/28 11:49:06;;;;;;;1.42;1.08;;;24.90;18.60;;;;;;5025789;28;20370;-55
2023/06/28 11:51:31;;;;;;;2.08;1.08;;;25.00;18.60;;;;;;5027761;28;20037;-57
2023/06/28 11:53:57;;;;;;;1.52;1.10;;;25.10;18.60;;;;;;5025457;28;20040;-57
2023/06/28 11:56:42;;;;;;;2.45;1.27;;;25.20;18.80;;;;;;5027200;28;20034;-57
2023/06/28 11:59:26;;;;;;;3.73;1.40;;;25.20;18.90;;;;;;5015511;28;20037;-59
2023/06/28 12:02:05;;;;;;;5.53;1.50;;;24.80;18.30;;;;;;5006675;28;20084;-57
2023/06/28 12:04:33;;;;;;;2.25;1.17;;;24.70;19.40;;;;;;5019136;28;20088;-57
2023/06/28 12:07:01;;;;;;;1.63;1.17;;;24.80;19.30;;;;;;5023115;28;20105;-56
2023/06/28 12:09:28;;;;;;;2.08;1.15;;;25.00;19.40;;;;;;5012825;28;20025;-56
2023/06/28 12:11:57;;;;;;;1.88;1.10;;;25.10;19.20;;;;;;5027034;28;20790;-58
2023/06/28 12:14:23;;;;;;;2.03;1.27;;;25.20;19.10;;;;;;5013459;28;20114;-56
2023/06/28 12:16:52;;;;;;;1.63;0.80;;;25.20;18.80;;;;;;5029370;28;20044;-55
2023/06/28 12:19:19;;;;;;;3.95;1.13;;;25.30;18.60;;;;;;5017545;28;20065;-57
2023/06/28 12:21:45;;;;;;;4.60;0.85;;;25.40;18.80;;;;;;5030550;28;20021;-56
2023/06/28 12:24:16;;;;;;;2.63;1.45;;;25.60;18.60;;;;;;5029044;28;20044;-55
2023/06/28 12:26:49;;;;;;;3.10;1.00;;;25.80;18.30;;;;;;5030968;28;20037;-56
2023/06/28 12:29:18;;;;;;;1.90;1.33;;;25.80;18.20;;;;;;5028911;28;20038;-55
2023/06/28 12:31:47;;;;;;;1.88;1.27;;;25.80;18.00;;;;;;5030965;28;20040;-56
2023/06/28 12:34:25;;;;;;;1.73;0.85;;;25.90;18.30;;;;;;5028786;28;20033;-55
2023/06/28 12:36:57;;;;;;;2.00;1.00;;;25.90;18.10;;;;;;5011253;28;20037;-56
2023/06/28 12:39:28;;;;;;;2.30;1.00;;;25.80;17.90;;;;;;5028654;28;20044;-58
2023/06/28 12:42:02;;;;;;;3.97;1.25;;;25.60;18.20;;;;;;5030731;28;20163;-54
2023/06/28 12:44:29;;;;;;;1.30;0.98;;;25.50;18.70;;;;;;5015960;28;20022;-57
2023/06/28 12:46:56;;;;;;;2.75;1.55;;;25.40;18.60;;;;;;5030173;28;20094;-55